sensor_id;sensor_type;location;lat;lon;timestamp;temperature;humidity
76996;DHT22;65929;49.062;10.338;2024-01-15T00:00:32;-4.70;89.80
76996;DHT22;65929;49.062;10.338;2024-01-15T00:01:33;-4.60;89.80
76996;DHT22;65929;49.062;10.338;2024-01-15T00:02:34;-4.60;89.80
76996;DHT22;65929;49.062;10.338;2024-01-15T00:03:35;-4.60;89.70
76996;DHT22;65929;49.062;10.338;2024-01-15T00:04:38;-4.60;89.80
76996;DHT22;65929;49.062;10.338;2024-01-15T00:05:39;-4.60;89.80
76996;DHT22;65929;49.062;10.338;2024-01-15T00:06:40;-4.60;89.70
76996;DHT22;65929;49.062;10.338;2024-01-15T00:07:41;-4.60;89.70
76996;DHT22;65929;49.062;10.338;2024-01-15T00:08:42;-4.60;89.80
76996;DHT22;65929;49.062;10.338;2024-01-15T00:09:43;-4.60;89.80
76996;DHT22;65929;49.062;10.338;2024-01-15T00:10:45;-4.60;89.70
76996;DHT22;65929;49.062;10.338;2024-01-15T00:11:46;-4.60;89.70
76996;DHT22;65929;49.062;10.338;2024-01-15T00:12:47;-4.60;89.70
76996;DHT22;65929;49.062;10.338;2024-01-15T00:13:48;-4.60;89.80
76996;DHT22;65929;49.062;10.338;2024-01-15T00:14:49;-4.60;89.90
76996;DHT22;65929;49.062;10.338;2024-01-15T00:15:50;-4.60;89.80
76996;DHT22;65929;49.062;10.338;2024-01-15T00:16:51;-4.60;89.90
76996;DHT22;65929;49.062;10.338;2024-01-15T00:17:52;-4.60;89.90
76996;DHT22;65929;49.062;10.338;2024-01-15T00:18:53;-4.60;90.00
76996;DHT22;65929;49.062;10.338;2024-01-15T00:19:54;-4.60;90.00
76996;DHT22;65929;49.062;10.338;2024-01-15T00:20:54;-4.60;90.00
76996;DHT22;65929;49.062;10.338;2024-01-15T00:21:55;-4.60;90.00
76996;DHT22;65929;49.062;10.338;2024-01-15T00:22:57;-4.60;90.00
76996;DHT22;65929;49.062;10.338;2024-01-15T00:23:58;-4.50;90.00
76996;DHT22;65929;49.062;10.338;2024-01-15T00:24:59;-4.50;90.00
76996;DHT22;65929;49.062;10.338;2024-01-15T00:26:01;-4.50;89.90
76996;DHT22;65929;49.062;10.338;2024-01-15T00:27:03;-4.50;89.90
76996;DHT22;65929;49.062;10.338;2024-01-15T00:28:04;-4.50;89.80
76996;DHT22;65929;49.062;10.338;2024-01-15T00:29:06;-4.40;89.80
76996;DHT22;65929;49.062;10.338;2024-01-15T00:30:08;-4.40;89.90
76996;DHT22;65929;49.062;10.338;2024-01-15T00:31:10;-4.40;89.90
76996;DHT22;65929;49.062;10.338;2024-01-15T00:32:11;-4.40;90.00
76996;DHT22;65929;49.062;10.338;2024-01-15T00:33:11;-4.40;90.00
76996;DHT22;65929;49.062;10.338;2024-01-15T00:34:15;-4.40;90.00
76996;DHT22;65929;49.062;10.338;2024-01-15T00:35:16;-4.40;90.10
76996;DHT22;65929;49.062;10.338;2024-01-15T00:36:17;-4.30;90.10
76996;DHT22;65929;49.062;10.338;2024-01-15T00:37:18;-4.30;90.00
76996;DHT22;65929;49.062;10.338;2024-01-15T00:38:19;-4.30;90.00
76996;DHT22;65929;49.062;10.338;2024-01-15T00:39:20;-4.30;90.00
76996;DHT22;65929;49.062;10.338;2024-01-15T00:40:21;-4.30;89.90
76996;DHT22;65929;49.062;10.338;2024-01-15T00:41:24;-4.30;90.00
76996;DHT22;65929;49.062;10.338;2024-01-15T00:42:25;-4.30;90.00
76996;DHT22;65929;49.062;10.338;2024-01-15T00:43:25;-4.30;90.00
76996;DHT22;65929;49.062;10.338;2024-01-15T00:44:26;-4.30;90.00
76996;DHT22;65929;49.062;10.338;2024-01-15T00:45:27;-4.30;89.90
76996;DHT22;65929;49.062;10.338;2024-01-15T00:46:28;-4.20;89.90
76996;DHT22;65929;49.062;10.338;2024-01-15T00:47:29;-4.20;89.90
76996;DHT22;65929;49.062;10.338;2024-01-15T00:48:30;-4.20;89.80
76996;DHT22;65929;49.062;10.338;2024-01-15T00:49:31;-4.20;89.80
76996;DHT22;65929;49.062;10.338;2024-01-15T00:50:32;-4.20;89.70
76996;DHT22;65929;49.062;10.338;2024-01-15T00:51:33;-4.20;89.50
76996;DHT22;65929;49.062;10.338;2024-01-15T00:52:34;-4.10;89.70
76996;DHT22;65929;49.062;10.338;2024-01-15T00:53:35;-4.10;89.70
76996;DHT22;65929;49.062;10.338;2024-01-15T00:54:36;-4.10;89.70
76996;DHT22;65929;49.062;10.338;2024-01-15T00:55:36;-4.10;89.50
76996;DHT22;65929;49.062;10.338;2024-01-15T00:56:39;-4.10;89.40
76996;DHT22;65929;49.062;10.338;2024-01-15T00:57:40;-4.10;89.30
76996;DHT22;65929;49.062;10.338;2024-01-15T00:58:41;-4.10;89.30
76996;DHT22;65929;49.062;10.338;2024-01-15T00:59:42;-4.00;89.20
76996;DHT22;65929;49.062;10.338;2024-01-15T01:00:43;-4.10;89.10
76996;DHT22;65929;49.062;10.338;2024-01-15T01:01:44;-4.00;89.20
76996;DHT22;65929;49.062;10.338;2024-01-15T01:02:46;-4.00;89.20
76996;DHT22;65929;49.062;10.338;2024-01-15T01:03:47;-4.00;89.20
76996;DHT22;65929;49.062;10.338;2024-01-15T01:04:48;-4.00;89.40
76996;DHT22;65929;49.062;10.338;2024-01-15T01:05:49;-4.00;89.30
76996;DHT22;65929;49.062;10.338;2024-01-15T01:06:52;-4.00;89.20
76996;DHT22;65929;49.062;10.338;2024-01-15T01:07:53;-4.00;89.10
76996;DHT22;65929;49.062;10.338;2024-01-15T01:08:54;-4.00;89.20
76996;DHT22;65929;49.062;10.338;2024-01-15T01:09:55;-4.00;89.00
76996;DHT22;65929;49.062;10.338;2024-01-15T01:10:56;-4.00;88.90
76996;DHT22;65929;49.062;10.338;2024-01-15T01:11:58;-4.00;88.90
76996;DHT22;65929;49.062;10.338;2024-01-15T01:12:59;-4.00;88.90
76996;DHT22;65929;49.062;10.338;2024-01-15T01:14:00;-4.00;89.00
76996;DHT22;65929;49.062;10.338;2024-01-15T01:15:02;-4.00;89.00
76996;DHT22;65929;49.062;10.338;2024-01-15T01:16:04;-3.90;88.90
76996;DHT22;65929;49.062;10.338;2024-01-15T01:17:04;-4.00;89.00
76996;DHT22;65929;49.062;10.338;2024-01-15T01:18:05;-3.90;89.00
76996;DHT22;65929;49.062;10.338;2024-01-15T01:19:06;-3.90;89.00
76996;DHT22;65929;49.062;10.338;2024-01-15T01:20:08;-3.90;89.00
76996;DHT22;65929;49.062;10.338;2024-01-15T01:21:10;-3.90;89.00
76996;DHT22;65929;49.062;10.338;2024-01-15T01:22:11;-3.90;89.00
76996;DHT22;65929;49.062;10.338;2024-01-15T01:23:12;-3.90;89.00
76996;DHT22;65929;49.062;10.338;2024-01-15T01:24:13;-3.90;89.00
76996;DHT22;65929;49.062;10.338;2024-01-15T01:25:14;-3.80;89.00
76996;DHT22;65929;49.062;10.338;2024-01-15T01:26:15;-3.80;88.70
76996;DHT22;65929;49.062;10.338;2024-01-15T01:27:18;-3.80;88.80
76996;DHT22;65929;49.062;10.338;2024-01-15T01:28:19;-3.80;88.90
76996;DHT22;65929;49.062;10.338;2024-01-15T01:29:20;-3.80;88.90
76996;DHT22;65929;49.062;10.338;2024-01-15T01:30:21;-3.80;88.90
76996;DHT22;65929;49.062;10.338;2024-01-15T01:31:23;-3.80;88.80
76996;DHT22;65929;49.062;10.338;2024-01-15T01:32:24;-3.80;88.80
76996;DHT22;65929;49.062;10.338;2024-01-15T01:33:25;-3.80;88.90
76996;DHT22;65929;49.062;10.338;2024-01-15T01:34:26;-3.80;88.90
76996;DHT22;65929;49.062;10.338;2024-01-15T01:35:27;-3.80;88.90
76996;DHT22;65929;49.062;10.338;2024-01-15T01:36:28;-3.80;88.80
76996;DHT22;65929;49.062;10.338;2024-01-15T01:37:28;-3.80;88.70
76996;DHT22;65929;49.062;10.338;2024-01-15T01:38:29;-3.80;88.80
76996;DHT22;65929;49.062;10.338;2024-01-15T01:39:30;-3.80;88.70
76996;DHT22;65929;49.062;10.338;2024-01-15T01:40:31;-3.80;88.70
76996;DHT22;65929;49.062;10.338;2024-01-15T01:41:32;-3.80;88.70
76996;DHT22;65929;49.062;10.338;2024-01-15T01:42:34;-3.80;88.70
76996;DHT22;65929;49.062;10.338;2024-01-15T01:43:35;-3.80;88.70
76996;DHT22;65929;49.062;10.338;2024-01-15T01:44:36;-3.80;88.70
76996;DHT22;65929;49.062;10.338;2024-01-15T01:45:37;-3.80;88.70
76996;DHT22;65929;49.062;10.338;2024-01-15T01:46:39;-3.80;88.70
76996;DHT22;65929;49.062;10.338;2024-01-15T01:47:41;-3.80;88.50
76996;DHT22;65929;49.062;10.338;2024-01-15T01:48:42;-3.70;88.60
76996;DHT22;65929;49.062;10.338;2024-01-15T01:49:45;-3.70;88.50
76996;DHT22;65929;49.062;10.338;2024-01-15T01:50:46;-3.70;88.50
76996;DHT22;65929;49.062;10.338;2024-01-15T01:51:47;-3.70;88.50
76996;DHT22;65929;49.062;10.338;2024-01-15T01:52:49;-3.70;88.50
76996;DHT22;65929;49.062;10.338;2024-01-15T01:53:50;-3.70;88.50
76996;DHT22;65929;49.062;10.338;2024-01-15T01:54:52;-3.70;88.50
76996;DHT22;65929;49.062;10.338;2024-01-15T01:55:53;-3.60;88.40
76996;DHT22;65929;49.062;10.338;2024-01-15T01:56:55;-3.60;88.40
76996;DHT22;65929;49.062;10.338;2024-01-15T01:57:59;-3.60;88.40
76996;DHT22;65929;49.062;10.338;2024-01-15T01:59:01;-3.60;88.30
76996;DHT22;65929;49.062;10.338;2024-01-15T02:00:04;-3.60;88.60
76996;DHT22;65929;49.062;10.338;2024-01-15T02:01:05;-3.60;88.50
76996;DHT22;65929;49.062;10.338;2024-01-15T02:02:07;-3.60;88.60
76996;DHT22;65929;49.062;10.338;2024-01-15T02:03:08;-3.60;88.50
76996;DHT22;65929;49.062;10.338;2024-01-15T02:04:10;-3.60;88.40
76996;DHT22;65929;49.062;10.338;2024-01-15T02:05:12;-3.60;88.40
76996;DHT22;65929;49.062;10.338;2024-01-15T02:06:14;-3.60;88.30
76996;DHT22;65929;49.062;10.338;2024-01-15T02:07:15;-3.60;88.50
76996;DHT22;65929;49.062;10.338;2024-01-15T02:08:18;-3.60;88.40
76996;DHT22;65929;49.062;10.338;2024-01-15T02:09:19;-3.60;88.60
76996;DHT22;65929;49.062;10.338;2024-01-15T02:10:20;-3.60;88.70
76996;DHT22;65929;49.062;10.338;2024-01-15T02:11:21;-3.60;88.60
76996;DHT22;65929;49.062;10.338;2024-01-15T02:12:22;-3.60;88.60
76996;DHT22;65929;49.062;10.338;2024-01-15T02:13:24;-3.50;88.50
76996;DHT22;65929;49.062;10.338;2024-01-15T02:14:25;-3.50;88.80
76996;DHT22;65929;49.062;10.338;2024-01-15T02:15:26;-3.50;88.90
76996;DHT22;65929;49.062;10.338;2024-01-15T02:16:27;-3.50;89.10
76996;DHT22;65929;49.062;10.338;2024-01-15T02:17:28;-3.50;89.00
76996;DHT22;65929;49.062;10.338;2024-01-15T02:18:28;-3.50;89.00
76996;DHT22;65929;49.062;10.338;2024-01-15T02:19:29;-3.50;88.90
76996;DHT22;65929;49.062;10.338;2024-01-15T02:20:31;-3.50;88.90
76996;DHT22;65929;49.062;10.338;2024-01-15T02:21:32;-3.50;89.10
76996;DHT22;65929;49.062;10.338;2024-01-15T02:22:33;-3.50;89.20
76996;DHT22;65929;49.062;10.338;2024-01-15T02:23:35;-3.50;89.40
76996;DHT22;65929;49.062;10.338;2024-01-15T02:24:36;-3.50;89.20
76996;DHT22;65929;49.062;10.338;2024-01-15T02:25:38;-3.50;89.30
76996;DHT22;65929;49.062;10.338;2024-01-15T02:26:40;-3.50;89.20
76996;DHT22;65929;49.062;10.338;2024-01-15T02:27:41;-3.50;89.30
76996;DHT22;65929;49.062;10.338;2024-01-15T02:28:43;-3.50;89.00
76996;DHT22;65929;49.062;10.338;2024-01-15T02:29:45;-3.40;89.20
76996;DHT22;65929;49.062;10.338;2024-01-15T02:30:46;-3.40;89.10
76996;DHT22;65929;49.062;10.338;2024-01-15T02:31:47;-3.40;89.10
76996;DHT22;65929;49.062;10.338;2024-01-15T02:32:47;-3.40;89.20
76996;DHT22;65929;49.062;10.338;2024-01-15T02:33:48;-3.40;89.10
76996;DHT22;65929;49.062;10.338;2024-01-15T02:34:49;-3.40;89.10
76996;DHT22;65929;49.062;10.338;2024-01-15T02:35:50;-3.40;89.20
76996;DHT22;65929;49.062;10.338;2024-01-15T02:36:51;-3.40;89.00
76996;DHT22;65929;49.062;10.338;2024-01-15T02:37:52;-3.40;89.00
76996;DHT22;65929;49.062;10.338;2024-01-15T02:38:54;-3.30;88.90
76996;DHT22;65929;49.062;10.338;2024-01-15T02:39:55;-3.30;88.70
76996;DHT22;65929;49.062;10.338;2024-01-15T02:40:56;-3.30;88.60
76996;DHT22;65929;49.062;10.338;2024-01-15T02:41:57;-3.20;88.60
76996;DHT22;65929;49.062;10.338;2024-01-15T02:42:58;-3.20;88.50
76996;DHT22;65929;49.062;10.338;2024-01-15T02:43:59;-3.20;88.40
76996;DHT22;65929;49.062;10.338;2024-01-15T02:45:00;-3.20;88.60
76996;DHT22;65929;49.062;10.338;2024-01-15T02:46:01;-3.20;88.30
76996;DHT22;65929;49.062;10.338;2024-01-15T02:47:02;-3.20;88.20
76996;DHT22;65929;49.062;10.338;2024-01-15T02:48:03;-3.20;88.00
76996;DHT22;65929;49.062;10.338;2024-01-15T02:49:04;-3.20;88.00
76996;DHT22;65929;49.062;10.338;2024-01-15T02:50:06;-3.20;88.10
76996;DHT22;65929;49.062;10.338;2024-01-15T02:51:07;-3.20;88.20
76996;DHT22;65929;49.062;10.338;2024-01-15T02:52:08;-3.20;88.20
76996;DHT22;65929;49.062;10.338;2024-01-15T02:53:08;-3.20;88.10
76996;DHT22;65929;49.062;10.338;2024-01-15T02:54:11;-3.20;88.10
76996;DHT22;65929;49.062;10.338;2024-01-15T02:55:12;-3.20;88.00
76996;DHT22;65929;49.062;10.338;2024-01-15T02:56:13;-3.20;88.00
76996;DHT22;65929;49.062;10.338;2024-01-15T02:57:14;-3.20;87.80
76996;DHT22;65929;49.062;10.338;2024-01-15T02:58:14;-3.20;87.80
76996;DHT22;65929;49.062;10.338;2024-01-15T02:59:15;-3.10;87.80
76996;DHT22;65929;49.062;10.338;2024-01-15T03:00:16;-3.10;87.80
76996;DHT22;65929;49.062;10.338;2024-01-15T03:01:18;-3.10;87.60
76996;DHT22;65929;49.062;10.338;2024-01-15T03:02:19;-3.20;87.80
76996;DHT22;65929;49.062;10.338;2024-01-15T03:03:20;-3.10;87.80
76996;DHT22;65929;49.062;10.338;2024-01-15T03:04:21;-3.10;87.80
76996;DHT22;65929;49.062;10.338;2024-01-15T03:05:22;-3.10;87.50
76996;DHT22;65929;49.062;10.338;2024-01-15T03:06:23;-3.10;87.60
76996;DHT22;65929;49.062;10.338;2024-01-15T03:07:24;-3.10;87.70
76996;DHT22;65929;49.062;10.338;2024-01-15T03:08:25;-3.10;87.90
76996;DHT22;65929;49.062;10.338;2024-01-15T03:09:27;-3.10;87.70
76996;DHT22;65929;49.062;10.338;2024-01-15T03:10:28;-3.10;87.30
76996;DHT22;65929;49.062;10.338;2024-01-15T03:11:29;-3.10;87.20
76996;DHT22;65929;49.062;10.338;2024-01-15T03:12:30;-3.10;87.20
76996;DHT22;65929;49.062;10.338;2024-01-15T03:13:31;-3.10;87.20
76996;DHT22;65929;49.062;10.338;2024-01-15T03:14:31;-3.10;87.20
76996;DHT22;65929;49.062;10.338;2024-01-15T03:15:32;-3.10;87.20
76996;DHT22;65929;49.062;10.338;2024-01-15T03:16:33;-3.10;87.20
76996;DHT22;65929;49.062;10.338;2024-01-15T03:17:34;-3.10;87.00
76996;DHT22;65929;49.062;10.338;2024-01-15T03:18:35;-3.10;86.90
76996;DHT22;65929;49.062;10.338;2024-01-15T03:19:36;-3.00;87.10
76996;DHT22;65929;49.062;10.338;2024-01-15T03:20:37;-3.10;87.10
76996;DHT22;65929;49.062;10.338;2024-01-15T03:21:38;-3.00;87.10
76996;DHT22;65929;49.062;10.338;2024-01-15T03:22:39;-3.00;86.80
76996;DHT22;65929;49.062;10.338;2024-01-15T03:23:40;-3.00;86.80
76996;DHT22;65929;49.062;10.338;2024-01-15T03:24:42;-3.00;86.90
76996;DHT22;65929;49.062;10.338;2024-01-15T03:25:43;-3.00;87.10
76996;DHT22;65929;49.062;10.338;2024-01-15T03:26:44;-3.00;86.90
76996;DHT22;65929;49.062;10.338;2024-01-15T03:27:45;-3.00;86.90
76996;DHT22;65929;49.062;10.338;2024-01-15T03:28:45;-3.00;86.90
76996;DHT22;65929;49.062;10.338;2024-01-15T03:29:47;-3.00;87.00
76996;DHT22;65929;49.062;10.338;2024-01-15T03:30:47;-3.00;87.20
76996;DHT22;65929;49.062;10.338;2024-01-15T03:31:48;-3.00;86.90
76996;DHT22;65929;49.062;10.338;2024-01-15T03:32:49;-3.00;87.00
76996;DHT22;65929;49.062;10.338;2024-01-15T03:33:50;-3.00;86.90
76996;DHT22;65929;49.062;10.338;2024-01-15T03:34:51;-3.00;86.90
76996;DHT22;65929;49.062;10.338;2024-01-15T03:35:53;-3.00;86.80
76996;DHT22;65929;49.062;10.338;2024-01-15T03:36:53;-3.00;87.00
76996;DHT22;65929;49.062;10.338;2024-01-15T03:37:54;-3.00;87.00
76996;DHT22;65929;49.062;10.338;2024-01-15T03:38:55;-3.00;86.70
76996;DHT22;65929;49.062;10.338;2024-01-15T03:39:57;-3.00;86.80
76996;DHT22;65929;49.062;10.338;2024-01-15T03:40:58;-3.00;86.80
76996;DHT22;65929;49.062;10.338;2024-01-15T03:41:59;-3.00;86.70
76996;DHT22;65929;49.062;10.338;2024-01-15T03:43:00;-3.00;86.80
76996;DHT22;65929;49.062;10.338;2024-01-15T03:44:01;-2.90;86.50
76996;DHT22;65929;49.062;10.338;2024-01-15T03:45:03;-2.90;86.50
76996;DHT22;65929;49.062;10.338;2024-01-15T03:46:04;-3.00;86.70
76996;DHT22;65929;49.062;10.338;2024-01-15T03:47:05;-3.00;86.70
76996;DHT22;65929;49.062;10.338;2024-01-15T03:48:06;-2.90;86.80
76996;DHT22;65929;49.062;10.338;2024-01-15T03:49:07;-2.90;86.60
76996;DHT22;65929;49.062;10.338;2024-01-15T03:50:09;-2.90;86.50
76996;DHT22;65929;49.062;10.338;2024-01-15T03:51:10;-2.90;86.50
76996;DHT22;65929;49.062;10.338;2024-01-15T03:52:11;-2.90;86.50
76996;DHT22;65929;49.062;10.338;2024-01-15T03:53:12;-2.90;86.60
76996;DHT22;65929;49.062;10.338;2024-01-15T03:54:13;-2.90;86.70
76996;DHT22;65929;49.062;10.338;2024-01-15T03:55:15;-2.90;86.50
76996;DHT22;65929;49.062;10.338;2024-01-15T03:56:16;-2.90;86.50
76996;DHT22;65929;49.062;10.338;2024-01-15T03:57:17;-2.90;86.40
76996;DHT22;65929;49.062;10.338;2024-01-15T03:58:18;-2.90;86.30
76996;DHT22;65929;49.062;10.338;2024-01-15T03:59:19;-2.90;86.60
76996;DHT22;65929;49.062;10.338;2024-01-15T04:00:20;-2.90;86.50
76996;DHT22;65929;49.062;10.338;2024-01-15T04:01:21;-2.90;86.50
76996;DHT22;65929;49.062;10.338;2024-01-15T04:02:22;-2.90;86.30
76996;DHT22;65929;49.062;10.338;2024-01-15T04:03:23;-2.90;86.40
76996;DHT22;65929;49.062;10.338;2024-01-15T04:04:24;-2.90;86.40
76996;DHT22;65929;49.062;10.338;2024-01-15T04:05:25;-2.90;86.40
76996;DHT22;65929;49.062;10.338;2024-01-15T04:06:26;-2.80;86.30
76996;DHT22;65929;49.062;10.338;2024-01-15T04:07:27;-2.80;86.30
76996;DHT22;65929;49.062;10.338;2024-01-15T04:08:28;-2.80;86.20
76996;DHT22;65929;49.062;10.338;2024-01-15T04:09:28;-2.80;86.10
76996;DHT22;65929;49.062;10.338;2024-01-15T04:10:31;-2.80;86.20
76996;DHT22;65929;49.062;10.338;2024-01-15T04:11:32;-2.80;86.10
76996;DHT22;65929;49.062;10.338;2024-01-15T04:12:32;-2.80;86.10
76996;DHT22;65929;49.062;10.338;2024-01-15T04:13:33;-2.80;86.20
76996;DHT22;65929;49.062;10.338;2024-01-15T04:14:34;-2.80;86.10
76996;DHT22;65929;49.062;10.338;2024-01-15T04:15:35;-2.80;86.00
76996;DHT22;65929;49.062;10.338;2024-01-15T04:16:37;-2.80;86.10
76996;DHT22;65929;49.062;10.338;2024-01-15T04:17:38;-2.70;86.10
76996;DHT22;65929;49.062;10.338;2024-01-15T04:18:39;-2.80;86.10
76996;DHT22;65929;49.062;10.338;2024-01-15T04:19:40;-2.70;86.10
76996;DHT22;65929;49.062;10.338;2024-01-15T04:20:44;-2.70;86.20
76996;DHT22;65929;49.062;10.338;2024-01-15T04:21:45;-2.80;86.20
76996;DHT22;65929;49.062;10.338;2024-01-15T04:22:46;-2.70;85.90
76996;DHT22;65929;49.062;10.338;2024-01-15T04:23:47;-2.70;85.90
76996;DHT22;65929;49.062;10.338;2024-01-15T04:24:48;-2.70;86.20
76996;DHT22;65929;49.062;10.338;2024-01-15T04:25:50;-2.70;86.20
76996;DHT22;65929;49.062;10.338;2024-01-15T04:26:51;-2.70;86.10
76996;DHT22;65929;49.062;10.338;2024-01-15T04:27:52;-2.70;85.90
76996;DHT22;65929;49.062;10.338;2024-01-15T04:28:53;-2.70;86.20
76996;DHT22;65929;49.062;10.338;2024-01-15T04:29:54;-2.70;86.00
76996;DHT22;65929;49.062;10.338;2024-01-15T04:30:55;-2.70;86.10
76996;DHT22;65929;49.062;10.338;2024-01-15T04:31:55;-2.70;86.00
76996;DHT22;65929;49.062;10.338;2024-01-15T04:32:56;-2.70;86.10
76996;DHT22;65929;49.062;10.338;2024-01-15T04:33:57;-2.70;86.20
76996;DHT22;65929;49.062;10.338;2024-01-15T04:34:58;-2.70;86.20
76996;DHT22;65929;49.062;10.338;2024-01-15T04:36:02;-2.70;86.10
76996;DHT22;65929;49.062;10.338;2024-01-15T04:37:03;-2.70;86.20
76996;DHT22;65929;49.062;10.338;2024-01-15T04:38:04;-2.70;86.20
76996;DHT22;65929;49.062;10.338;2024-01-15T04:39:05;-2.70;86.20
76996;DHT22;65929;49.062;10.338;2024-01-15T04:40:06;-2.70;86.20
76996;DHT22;65929;49.062;10.338;2024-01-15T04:41:11;-2.70;86.20
76996;DHT22;65929;49.062;10.338;2024-01-15T04:42:12;-2.70;86.10
76996;DHT22;65929;49.062;10.338;2024-01-15T04:43:13;-2.70;86.30
76996;DHT22;65929;49.062;10.338;2024-01-15T04:44:14;-2.70;86.60
76996;DHT22;65929;49.062;10.338;2024-01-15T04:45:15;-2.70;86.70
76996;DHT22;65929;49.062;10.338;2024-01-15T04:46:16;-2.70;86.50
76996;DHT22;65929;49.062;10.338;2024-01-15T04:47:17;-2.70;86.00
76996;DHT22;65929;49.062;10.338;2024-01-15T04:48:17;-2.70;86.00
76996;DHT22;65929;49.062;10.338;2024-01-15T04:49:18;-2.70;86.00
76996;DHT22;65929;49.062;10.338;2024-01-15T04:50:19;-2.70;86.20
76996;DHT22;65929;49.062;10.338;2024-01-15T04:51:20;-2.70;86.10
76996;DHT22;65929;49.062;10.338;2024-01-15T04:52:21;-2.70;86.00
76996;DHT22;65929;49.062;10.338;2024-01-15T04:53:22;-2.70;86.20
76996;DHT22;65929;49.062;10.338;2024-01-15T04:54:23;-2.70;86.10
76996;DHT22;65929;49.062;10.338;2024-01-15T04:55:24;-2.70;86.10
76996;DHT22;65929;49.062;10.338;2024-01-15T04:56:26;-2.70;86.10
76996;DHT22;65929;49.062;10.338;2024-01-15T04:57:27;-2.70;86.30
76996;DHT22;65929;49.062;10.338;2024-01-15T04:58:28;-2.70;86.30
76996;DHT22;65929;49.062;10.338;2024-01-15T04:59:29;-2.70;86.60
76996;DHT22;65929;49.062;10.338;2024-01-15T05:00:30;-2.70;86.70
76996;DHT22;65929;49.062;10.338;2024-01-15T05:01:31;-2.70;86.70
76996;DHT22;65929;49.062;10.338;2024-01-15T05:02:33;-2.70;86.60
76996;DHT22;65929;49.062;10.338;2024-01-15T05:03:34;-2.70;86.40
76996;DHT22;65929;49.062;10.338;2024-01-15T05:04:35;-2.70;86.10
76996;DHT22;65929;49.062;10.338;2024-01-15T05:05:36;-2.70;86.10
76996;DHT22;65929;49.062;10.338;2024-01-15T05:06:37;-2.70;86.10
76996;DHT22;65929;49.062;10.338;2024-01-15T05:07:38;-2.70;85.90
76996;DHT22;65929;49.062;10.338;2024-01-15T05:08:39;-2.60;85.70
76996;DHT22;65929;49.062;10.338;2024-01-15T05:09:40;-2.60;85.80
76996;DHT22;65929;49.062;10.338;2024-01-15T05:10:40;-2.60;85.60
76996;DHT22;65929;49.062;10.338;2024-01-15T05:11:43;-2.60;85.70
76996;DHT22;65929;49.062;10.338;2024-01-15T05:12:44;-2.60;85.50
76996;DHT22;65929;49.062;10.338;2024-01-15T05:13:44;-2.60;85.50
76996;DHT22;65929;49.062;10.338;2024-01-15T05:14:45;-2.60;85.70
76996;DHT22;65929;49.062;10.338;2024-01-15T05:15:46;-2.60;85.70
76996;DHT22;65929;49.062;10.338;2024-01-15T05:16:48;-2.60;85.70
76996;DHT22;65929;49.062;10.338;2024-01-15T05:17:50;-2.60;85.70
76996;DHT22;65929;49.062;10.338;2024-01-15T05:18:50;-2.70;85.70
76996;DHT22;65929;49.062;10.338;2024-01-15T05:19:51;-2.70;85.80
76996;DHT22;65929;49.062;10.338;2024-01-15T05:20:52;-2.70;85.60
76996;DHT22;65929;49.062;10.338;2024-01-15T05:21:53;-2.70;85.40
76996;DHT22;65929;49.062;10.338;2024-01-15T05:22:54;-2.60;85.50
76996;DHT22;65929;49.062;10.338;2024-01-15T05:23:55;-2.60;85.50
76996;DHT22;65929;49.062;10.338;2024-01-15T05:24:56;-2.70;85.50
76996;DHT22;65929;49.062;10.338;2024-01-15T05:25:57;-2.70;85.70
76996;DHT22;65929;49.062;10.338;2024-01-15T05:26:59;-2.70;85.70
76996;DHT22;65929;49.062;10.338;2024-01-15T05:28:01;-2.70;85.70
76996;DHT22;65929;49.062;10.338;2024-01-15T05:29:02;-2.70;85.50
76996;DHT22;65929;49.062;10.338;2024-01-15T05:30:05;-2.60;85.30
76996;DHT22;65929;49.062;10.338;2024-01-15T05:31:06;-2.60;85.10
76996;DHT22;65929;49.062;10.338;2024-01-15T05:32:07;-2.60;85.10
76996;DHT22;65929;49.062;10.338;2024-01-15T05:33:08;-2.60;85.20
76996;DHT22;65929;49.062;10.338;2024-01-15T05:34:09;-2.60;85.10
76996;DHT22;65929;49.062;10.338;2024-01-15T05:35:09;-2.60;84.90
76996;DHT22;65929;49.062;10.338;2024-01-15T05:36:11;-2.60;85.00
76996;DHT22;65929;49.062;10.338;2024-01-15T05:37:11;-2.60;85.10
76996;DHT22;65929;49.062;10.338;2024-01-15T05:38:13;-2.60;85.00
76996;DHT22;65929;49.062;10.338;2024-01-15T05:39:14;-2.60;85.10
76996;DHT22;65929;49.062;10.338;2024-01-15T05:40:14;-2.60;85.20
76996;DHT22;65929;49.062;10.338;2024-01-15T05:41:15;-2.60;85.20
76996;DHT22;65929;49.062;10.338;2024-01-15T05:42:18;-2.60;85.20
76996;DHT22;65929;49.062;10.338;2024-01-15T05:43:19;-2.60;85.30
76996;DHT22;65929;49.062;10.338;2024-01-15T05:44:19;-2.60;85.30
76996;DHT22;65929;49.062;10.338;2024-01-15T05:45:20;-2.60;85.30
76996;DHT22;65929;49.062;10.338;2024-01-15T05:46:21;-2.60;85.50
76996;DHT22;65929;49.062;10.338;2024-01-15T05:47:22;-2.60;85.50
76996;DHT22;65929;49.062;10.338;2024-01-15T05:48:23;-2.60;85.50
76996;DHT22;65929;49.062;10.338;2024-01-15T05:49:24;-2.60;85.30
76996;DHT22;65929;49.062;10.338;2024-01-15T05:50:25;-2.60;85.20
76996;DHT22;65929;49.062;10.338;2024-01-15T05:51:26;-2.60;85.30
76996;DHT22;65929;49.062;10.338;2024-01-15T05:52:26;-2.60;85.40
76996;DHT22;65929;49.062;10.338;2024-01-15T05:53:27;-2.60;85.40
76996;DHT22;65929;49.062;10.338;2024-01-15T05:54:28;-2.60;85.40
76996;DHT22;65929;49.062;10.338;2024-01-15T05:55:29;-2.60;85.40
76996;DHT22;65929;49.062;10.338;2024-01-15T05:56:30;-2.60;85.30
76996;DHT22;65929;49.062;10.338;2024-01-15T05:57:32;-2.60;85.30
76996;DHT22;65929;49.062;10.338;2024-01-15T05:58:33;-2.60;85.30
76996;DHT22;65929;49.062;10.338;2024-01-15T05:59:34;-2.60;85.40
76996;DHT22;65929;49.062;10.338;2024-01-15T06:00:36;-2.60;85.40
76996;DHT22;65929;49.062;10.338;2024-01-15T06:01:38;-2.60;85.40
76996;DHT22;65929;49.062;10.338;2024-01-15T06:02:39;-2.60;85.30
76996;DHT22;65929;49.062;10.338;2024-01-15T06:03:40;-2.60;85.50
76996;DHT22;65929;49.062;10.338;2024-01-15T06:04:41;-2.50;85.20
76996;DHT22;65929;49.062;10.338;2024-01-15T06:05:42;-2.50;85.30
76996;DHT22;65929;49.062;10.338;2024-01-15T06:06:43;-2.50;85.30
76996;DHT22;65929;49.062;10.338;2024-01-15T06:07:44;-2.50;85.40
76996;DHT22;65929;49.062;10.338;2024-01-15T06:08:45;-2.50;85.50
76996;DHT22;65929;49.062;10.338;2024-01-15T06:09:46;-2.60;85.50
76996;DHT22;65929;49.062;10.338;2024-01-15T06:10:47;-2.60;85.60
76996;DHT22;65929;49.062;10.338;2024-01-15T06:11:47;-2.60;85.50
76996;DHT22;65929;49.062;10.338;2024-01-15T06:12:50;-2.60;85.70
76996;DHT22;65929;49.062;10.338;2024-01-15T06:13:50;-2.60;85.70
76996;DHT22;65929;49.062;10.338;2024-01-15T06:14:51;-2.60;85.70
76996;DHT22;65929;49.062;10.338;2024-01-15T06:15:52;-2.60;85.80
76996;DHT22;65929;49.062;10.338;2024-01-15T06:16:53;-2.60;85.90
76996;DHT22;65929;49.062;10.338;2024-01-15T06:17:54;-2.60;86.00
76996;DHT22;65929;49.062;10.338;2024-01-15T06:18:55;-2.60;85.80
76996;DHT22;65929;49.062;10.338;2024-01-15T06:19:56;-2.60;85.90